Time;durP1;ratioP1;P1;durP2;ratioP2;P2;SDS_P1;SDS_P2;PMS_P1;PMS_P2;Temp;Humidity;BMP_temperature;BMP_pressure;BME280_temperature;BME280_humidity;BME280_pressure;Samples;Min_cycle;Max_cycle;Signal;HPM_P1;HPM_P2
2023/04/06 04:50:24;;;;;;;24.00;20.87;;;1.10;99.90;;;;;;5409848;23;20849;-75
2023/04/06 04:52:51;;;;;;;21.33;19.47;;;1.10;99.90;;;;;;4914000;29;20457;-75
2023/04/06 04:55:18;;;;;;;24.27;21.60;;;1.20;99.90;;;;;;4913866;29;20465;-75
2023/04/06 04:57:45;;;;;;;19.80;18.10;;;1.20;99.90;;;;;;4914272;29;20595;-75
2023/04/06 05:00:13;;;;;;;20.57;18.67;;;1.20;99.90;;;;;;4911387;29;20926;-73
2023/04/06 05:02:39;;;;;;;31.07;20.90;;;1.20;99.90;;;;;;4913817;29;20461;-74
2023/04/06 05:05:06;;;;;;;23.03;20.63;;;1.20;99.90;;;;;;4913995;29;20462;-75
2023/04/06 05:07:34;;;;;;;22.67;20.37;;;1.20;99.90;;;;;;4913932;29;20454;-74
2023/04/06 05:10:01;;;;;;;21.50;19.30;;;1.20;99.90;;;;;;4914036;29;20465;-74
2023/04/06 05:12:28;;;;;;;24.33;21.03;;;1.20;99.90;;;;;;4914033;29;20454;-75
2023/04/06 05:14:55;;;;;;;27.03;22.17;;;1.20;99.90;;;;;;4913854;29;20469;-75
2023/04/06 05:17:21;;;;;;;23.20;21.00;;;1.20;99.90;;;;;;4913491;29;20486;-76
2023/04/06 05:19:48;;;;;;;22.07;19.97;;;1.30;99.90;;;;;;4913459;29;20464;-75
2023/04/06 05:22:17;;;;;;;24.33;22.13;;;1.30;99.90;;;;;;4913114;29;20461;-75
2023/04/06 05:24:45;;;;;;;25.23;22.70;;;1.30;99.90;;;;;;4913672;29;20935;-76
2023/04/06 05:27:12;;;;;;;22.37;20.27;;;1.30;99.90;;;;;;4913607;29;20481;-74
2023/04/06 05:29:39;;;;;;;25.50;20.70;;;1.30;99.90;;;;;;4913613;29;20493;-75
2023/04/06 05:32:06;;;;;;;22.30;20.10;;;1.30;99.90;;;;;;4913161;29;20465;-74
2023/04/06 05:34:33;;;;;;;25.20;22.10;;;1.40;99.90;;;;;;4913225;29;20827;-74
2023/04/06 05:36:59;;;;;;;23.67;21.40;;;1.40;99.90;;;;;;4912759;29;20495;-74
2023/04/06 05:39:26;;;;;;;22.93;20.53;;;1.40;99.90;;;;;;4913427;29;20508;-75
2023/04/06 05:41:54;;;;;;;21.07;18.80;;;1.50;99.90;;;;;;4913413;29;20450;-74
2023/04/06 05:44:21;;;;;;;19.00;17.07;;;1.50;99.90;;;;;;4913328;29;20537;-73
2023/04/06 05:46:48;;;;;;;21.70;19.50;;;1.60;99.90;;;;;;4913324;29;20466;-73
2023/04/06 05:49:15;;;;;;;19.90;18.17;;;1.90;99.90;;;;;;4900847;29;20479;-75
2023/04/06 05:51:41;;;;;;;18.67;16.87;;;2.20;99.90;;;;;;4894421;29;20837;-75
2023/04/06 05:54:08;;;;;;;22.47;20.40;;;2.50;99.90;;;;;;4894146;29;20467;-75
2023/04/06 05:56:35;;;;;;;18.47;16.57;;;2.70;99.90;;;;;;4894065;29;20469;-74
2023/04/06 05:59:03;;;;;;;20.97;18.77;;;2.90;99.90;;;;;;4894138;29;20575;-75
2023/04/06 06:01:30;;;;;;;20.13;18.40;;;3.00;99.90;;;;;;4894058;29;20459;-75
2023/04/06 06:03:56;;;;;;;21.63;19.60;;;3.20;99.90;;;;;;4894046;29;20462;-75
2023/04/06 06:06:23;;;;;;;22.40;20.20;;;3.30;99.90;;;;;;4893907;29;20455;-75
2023/04/06 06:08:50;;;;;;;22.63;20.70;;;3.40;99.90;;;;;;4893714;29;20968;-75
2023/04/06 06:11:16;;;;;;;19.47;17.77;;;3.60;99.90;;;;;;4893794;29;20472;-75
2023/04/06 06:13:43;;;;;;;23.07;20.80;;;3.60;99.90;;;;;;4893817;29;20459;-76
2023/04/06 06:16:11;;;;;;;21.27;19.47;;;3.80;99.90;;;;;;4893953;29;20461;-77
2023/04/06 06:18:38;;;;;;;19.13;17.60;;;3.90;99.90;;;;;;4888183;29;20542;-76
2023/04/06 06:21:05;;;;;;;20.40;17.90;;;4.00;99.90;;;;;;4893886;29;20861;-76
2023/04/06 06:23:31;;;;;;;19.83;18.03;;;4.10;99.90;;;;;;4893978;29;20455;-75
2023/04/06 06:25:58;;;;;;;21.07;18.83;;;4.30;99.90;;;;;;4893772;29;20467;-75
2023/04/06 06:28:26;;;;;;;21.63;19.50;;;4.40;99.90;;;;;;4893998;29;20531;-75
2023/04/06 06:30:52;;;;;;;19.60;17.40;;;4.50;99.90;;;;;;4893919;29;20500;-75
2023/04/06 06:33:20;;;;;;;21.07;19.00;;;4.70;99.90;;;;;;4893429;29;20910;-75
2023/04/06 06:35:47;;;;;;;19.43;18.00;;;4.90;99.90;;;;;;4893285;29;20466;-76
2023/04/06 06:38:14;;;;;;;17.63;16.17;;;5.10;99.90;;;;;;4893362;29;20524;-76
2023/04/06 06:40:41;;;;;;;20.87;19.27;;;5.10;99.90;;;;;;4895929;29;20466;-76
2023/04/06 06:43:07;;;;;;;19.83;18.33;;;5.30;99.90;;;;;;4894087;29;20469;-76
2023/04/06 06:45:34;;;;;;;21.83;19.60;;;5.50;99.90;;;;;;4893465;29;20465;-74
2023/04/06 06:48:01;;;;;;;21.30;19.50;;;5.80;99.80;;;;;;4893407;29;20479;-76
2023/04/06 06:50:29;;;;;;;19.70;17.60;;;5.90;99.20;;;;;;4893249;29;20494;-74
2023/04/06 06:52:56;;;;;;;18.50;16.97;;;6.10;98.40;;;;;;4893783;29;20989;-76
2023/04/06 06:55:22;;;;;;;18.37;16.77;;;6.20;97.70;;;;;;4897805;29;20462;-75
2023/04/06 06:57:49;;;;;;;21.43;19.27;;;6.30;97.60;;;;;;4897590;29;20509;-77
2023/04/06 07:00:16;;;;;;;19.20;17.50;;;6.30;97.50;;;;;;4897316;29;20532;-76
2023/04/06 07:02:43;;;;;;;20.00;18.40;;;6.20;97.20;;;;;;4895468;29;20783;-73
2023/04/06 07:05:10;;;;;;;21.10;19.00;;;6.30;97.60;;;;;;4896474;29;20455;-73
2023/04/06 07:07:38;;;;;;;18.67;16.93;;;6.50;97.10;;;;;;4896755;29;20478;-76
2023/04/06 07:10:05;;;;;;;19.03;16.93;;;6.80;97.00;;;;;;4897261;29;20466;-77
2023/04/06 07:12:32;;;;;;;21.43;19.57;;;7.10;96.20;;;;;;4897614;29;20455;-78
2023/04/06 07:14:59;;;;;;;19.50;17.47;;;7.20;95.10;;;;;;4897086;29;20458;-76
2023/04/06 07:17:25;;;;;;;21.00;19.40;;;7.00;95.40;;;;;;4897112;29;20455;-76
2023/04/06 07:19:52;;;;;;;19.43;17.53;;;6.90;95.60;;;;;;4895378;29;20466;-76
2023/04/06 07:22:19;;;;;;;19.77;18.00;;;7.00;95.70;;;;;;4896633;29;20828;-76
2023/04/06 07:24:47;;;;;;;19.43;17.60;;;7.20;95.50;;;;;;4896839;29;20463;-77
2023/04/06 07:27:13;;;;;;;20.13;18.53;;;7.50;95.30;;;;;;4896716;29;20455;-76
2023/04/06 07:29:40;;;;;;;19.30;17.90;;;7.60;94.50;;;;;;4896856;29;20455;-76
2023/04/06 07:32:07;;;;;;;17.47;16.07;;;7.70;94.50;;;;;;4896517;29;20559;-76
2023/04/06 07:34:33;;;;;;;17.90;16.50;;;7.70;93.60;;;;;;4896345;29;20451;-76
2023/04/06 07:37:00;;;;;;;20.40;18.90;;;7.90;93.90;;;;;;4896341;29;20463;-76
2023/04/06 07:39:27;;;;;;;18.90;17.30;;;8.00;93.20;;;;;;4896528;29;20779;-76
2023/04/06 07:41:55;;;;;;;20.63;19.03;;;8.10;92.90;;;;;;4896495;29;20831;-76
2023/04/06 07:44:22;;;;;;;19.40;18.00;;;8.30;93.10;;;;;;4896274;29;20459;-76
2023/04/06 07:46:49;;;;;;;19.13;17.73;;;8.50;92.40;;;;;;4895967;29;20716;-76
2023/04/06 07:49:16;;;;;;;19.63;18.10;;;8.70;92.10;;;;;;4895315;29;20478;-77
2023/04/06 07:51:42;;;;;;;18.77;16.93;;;9.10;91.30;;;;;;4896363;29;20809;-76
2023/04/06 07:54:09;;;;;;;18.93;17.27;;;9.00;90.60;;;;;;4895556;29;20478;-76
2023/04/06 07:56:36;;;;;;;20.30;18.60;;;9.30;90.50;;;;;;4896041;29;20478;-76
2023/04/06 07:59:04;;;;;;;21.30;19.57;;;9.60;90.00;;;;;;4896009;29;20490;-76
2023/04/06 08:01:30;;;;;;;18.93;17.53;;;9.80;89.20;;;;;;4891035;29;20877;-76
2023/04/06 08:03:58;;;;;;;19.80;18.13;;;10.20;85.60;;;;;;4894586;29;20486;-76
2023/04/06 08:06:24;;;;;;;20.87;19.37;;;10.20;84.70;;;;;;4895888;29;20553;-77
2023/04/06 08:08:51;;;;;;;18.53;17.13;;;10.10;85.40;;;;;;4890061;29;21039;-76
2023/04/06 08:11:18;;;;;;;20.03;18.40;;;10.40;84.30;;;;;;4895065;29;20671;-76
2023/04/06 08:13:45;;;;;;;20.10;18.37;;;10.70;83.70;;;;;;4894912;29;20455;-76
2023/04/06 08:16:13;;;;;;;21.63;19.90;;;10.70;82.60;;;;;;4895778;29;20466;-76
2023/04/06 08:18:39;;;;;;;21.13;19.47;;;10.70;83.20;;;;;;4895215;29;20495;-78
2023/04/06 08:21:06;;;;;;;20.83;19.30;;;10.80;82.70;;;;;;4895213;29;20455;-82
2023/04/06 08:23:33;;;;;;;20.67;19.00;;;11.40;81.80;;;;;;4895101;29;20478;-83
2023/04/06 08:25:59;;;;;;;20.90;19.30;;;11.60;79.50;;;;;;4895463;29;20455;-78
2023/04/06 08:28:26;;;;;;;20.23;18.83;;;11.80;78.40;;;;;;4895373;29;20483;-79
2023/04/06 08:30:53;;;;;;;21.37;19.90;;;11.90;77.50;;;;;;4895211;29;20447;-79
2023/04/06 08:33:21;;;;;;;21.57;19.63;;;12.20;76.90;;;;;;4893146;29;20847;-79
2023/04/06 08:35:48;;;;;;;21.17;19.63;;;12.40;76.10;;;;;;4895200;29;21001;-79
2023/04/06 08:38:14;;;;;;;22.60;20.60;;;12.60;75.20;;;;;;4895081;29;20491;-78
2023/04/06 08:40:43;;;;;;;20.43;18.93;;;12.50;74.60;;;;;;4895283;29;21138;-78
2023/04/06 08:43:13;;;;;;;23.03;21.10;;;12.50;75.20;;;;;;4895095;29;20467;-77
2023/04/06 08:45:41;;;;;;;19.90;18.33;;;13.00;73.20;;;;;;4893012;29;20482;-74
2023/04/06 08:48:09;;;;;;;21.50;19.80;;;13.30;73.00;;;;;;4893621;29;21004;-73
2023/04/06 08:50:39;;;;;;;20.20;18.60;;;13.40;72.40;;;;;;4894575;29;20487;-74
2023/04/06 08:53:07;;;;;;;21.40;19.70;;;13.60;70.60;;;;;;4894892;29;20459;-74
2023/04/06 08:55:35;;;;;;;21.87;20.17;;;13.90;70.20;;;;;;4894757;29;20519;-74
2023/04/06 08:58:02;;;;;;;20.40;18.80;;;14.40;68.50;;;;;;4894202;29;21164;-74
2023/04/06 09:00:30;;;;;;;22.20;20.40;;;14.80;67.10;;;;;;4894050;29;20839;-74
2023/04/06 09:02:58;;;;;;;22.33;20.93;;;15.20;65.50;;;;;;4895056;29;20460;-74
2023/04/06 09:05:26;;;;;;;21.20;19.90;;;15.90;63.50;;;;;;4895146;29;20470;-74
2023/04/06 09:07:54;;;;;;;23.73;20.83;;;16.10;61.00;;;;;;4894865;29;20491;-74
2023/04/06 09:10:23;;;;;;;22.77;21.10;;;15.60;60.60;;;;;;4894740;29;20969;-74
2023/04/06 09:12:50;;;;;;;21.07;19.67;;;15.70;59.20;;;;;;4894770;29;20939;-75
2023/04/06 09:15:20;;;;;;;21.50;19.77;;;16.00;58.90;;;;;;4894872;29;20462;-75
2023/04/06 09:17:47;;;;;;;21.07;19.63;;;16.90;56.20;;;;;;4894120;29;21028;-75
2023/04/06 09:20:14;;;;;;;21.53;19.90;;;17.10;54.00;;;;;;4894954;29;20494;-75
2023/04/06 09:22:41;;;;;;;22.90;21.13;;;17.60;52.80;;;;;;4894999;29;20523;-74
2023/04/06 09:25:09;;;;;;;22.50;20.80;;;17.60;52.10;;;;;;4894567;29;20463;-75
2023/04/06 09:27:38;;;;;;;20.60;19.30;;;17.80;51.80;;;;;;4894227;29;20463;-75
2023/04/06 09:30:07;;;;;;;23.17;21.67;;;17.80;51.10;;;;;;4893993;29;20460;-76
2023/04/06 09:32:44;;;;;;;22.47;20.87;;;18.00;51.20;;;;;;4894154;29;20519;-76
2023/04/06 09:35:11;;;;;;;22.30;20.90;;;18.70;49.40;;;;;;4894239;29;20463;-75
2023/04/06 09:37:38;;;;;;;21.73;20.33;;;19.30;47.50;;;;;;4894207;29;20455;-75
2023/04/06 09:40:07;;;;;;;22.07;20.63;;;19.80;47.50;;;;;;4893812;29;20598;-75
2023/04/06 09:42:35;;;;;;;21.67;20.17;;;20.10;45.00;;;;;;4893864;29;20684;-76
2023/04/06 09:45:02;;;;;;;22.57;20.83;;;19.70;44.60;;;;;;4893660;29;20794;-75
2023/04/06 09:47:30;;;;;;;21.00;19.70;;;19.60;43.70;;;;;;4893739;29;20458;-75
2023/04/06 09:49:59;;;;;;;22.33;20.40;;;20.00;43.10;;;;;;4893536;29;20563;-75
2023/04/06 09:52:28;;;;;;;21.60;20.10;;;21.50;41.50;;;;;;4893952;29;20459;-75
2023/04/06 09:54:59;;;;;;;20.53;19.00;;;21.80;39.50;;;;;;4894213;29;20462;-75
2023/04/06 09:57:29;;;;;;;21.70;20.20;;;20.70;39.00;;;;;;4893983;29;20805;-75
2023/04/06 10:00:07;;;;;;;21.33;19.80;;;20.20;40.00;;;;;;4893898;29;21001;-76
2023/04/06 10:02:42;;;;;;;21.13;19.67;;;20.00;40.20;;;;;;4893549;29;21029;-75
2023/04/06 10:05:13;;;;;;;18.37;17.17;;;20.60;38.80;;;;;;4893711;29;20463;-74
2023/04/06 10:07:41;;;;;;;16.30;15.40;;;19.80;37.00;;;;;;4893835;29;20459;-75
2023/04/06 10:10:09;;;;;;;17.10;16.00;;;19.70;36.90;;;;;;4893585;29;20778;-75
2023/04/06 10:12:37;;;;;;;18.50;17.30;;;20.20;36.40;;;;;;4893268;29;20950;-75
2023/04/06 10:15:05;;;;;;;19.60;18.30;;;20.10;35.80;;;;;;4893380;29;20544;-75
2023/04/06 10:17:32;;;;;;;19.53;18.40;;;20.70;36.10;;;;;;4893281;29;20451;-75
2023/04/06 10:20:04;;;;;;;19.00;17.90;;;21.00;35.40;;;;;;4892948;29;20494;-75
2023/04/06 10:22:39;;;;;;;18.70;17.57;;;21.50;33.50;;;;;;4893123;29;20452;-75
2023/04/06 10:25:08;;;;;;;16.50;15.60;;;20.80;33.80;;;;;;4893104;29;20968;-75
2023/04/06 10:27:35;;;;;;;17.80;16.80;;;19.10;32.80;;;;;;4893374;29;20455;-75
2023/04/06 10:30:06;;;;;;;19.30;18.20;;;19.00;33.40;;;;;;4893176;29;20990;-75
2023/04/06 10:32:34;;;;;;;19.53;18.27;;;20.80;34.80;;;;;;4893282;29;20459;-75
2023/04/06 10:35:09;;;;;;;18.23;17.03;;;20.90;34.00;;;;;;4892941;29;20451;-75
2023/04/06 10:37:51;;;;;;;19.07;17.97;;;21.20;33.90;;;;;;4893439;29;20463;-75
2023/04/06 10:40:25;;;;;;;18.13;17.10;;;21.90;33.20;;;;;;4893079;29;20527;-75
2023/04/06 10:42:52;;;;;;;18.43;17.13;;;22.30;32.40;;;;;;4893073;29;20487;-75
2023/04/06 10:45:25;;;;;;;18.87;17.67;;;21.60;32.90;;;;;;4893127;29;20808;-75
2023/04/06 10:47:54;;;;;;;20.97;19.57;;;21.70;32.40;;;;;;4893068;29;20470;-75
2023/04/06 10:50:21;;;;;;;18.07;17.07;;;22.00;33.20;;;;;;4892818;29;20487;-75
2023/04/06 10:52:58;;;;;;;20.17;18.50;;;21.70;31.50;;;;;;4892825;29;20459;-75
2023/04/06 10:55:27;;;;;;;20.13;18.93;;;21.40;31.50;;;;;;4893244;29;20490;-75
2023/04/06 10:57:54;;;;;;;18.60;17.60;;;22.20;31.70;;;;;;4893377;29;20918;-75
2023/04/06 11:00:24;;;;;;;21.70;20.20;;;23.20;31.10;;;;;;4892902;29;20586;-75
2023/04/06 11:02:51;;;;;;;16.80;15.80;;;23.10;30.00;;;;;;4892813;29;20985;-76
2023/04/06 11:05:17;;;;;;;17.67;16.67;;;23.20;31.00;;;;;;4892917;29;20807;-75
2023/04/06 11:07:45;;;;;;;17.63;16.63;;;23.60;29.70;;;;;;4892821;29;20467;-75
2023/04/06 11:10:12;;;;;;;17.37;16.47;;;23.30;29.80;;;;;;4892996;29;20942;-72
2023/04/06 11:12:38;;;;;;;18.10;17.10;;;22.20;29.80;;;;;;4893135;29;20454;-73
2023/04/06 11:15:06;;;;;;;18.17;17.03;;;22.40;30.20;;;;;;4892700;29;20466;-73
2023/04/06 11:17:36;;;;;;;17.63;16.40;;;23.70;29.50;;;;;;4893117;29;20517;-74
2023/04/06 11:20:05;;;;;;;20.37;19.17;;;23.20;29.30;;;;;;4893567;29;20594;-75
2023/04/06 11:22:32;;;;;;;18.67;17.47;;;23.80;29.00;;;;;;4892865;29;20478;-75
2023/04/06 11:25:06;;;;;;;18.10;17.10;;;23.60;29.40;;;;;;4892664;29;20459;-73
2023/04/06 11:27:33;;;;;;;18.53;17.53;;;23.90;29.10;;;;;;4892643;29;20463;-73
2023/04/06 11:30:00;;;;;;;17.80;16.80;;;22.80;29.60;;;;;;4892610;29;20950;-73
2023/04/06 11:32:27;;;;;;;17.37;16.43;;;21.50;30.30;;;;;;4892660;29;20564;-73
2023/04/06 11:34:55;;;;;;;18.77;17.63;;;21.10;31.50;;;;;;4892719;29;20466;-74
2023/04/06 11:37:22;;;;;;;19.50;18.30;;;22.30;30.40;;;;;;4892670;29;20456;-74
2023/04/06 11:39:50;;;;;;;18.60;17.20;;;22.50;29.40;;;;;;4893971;29;20779;-73
2023/04/06 11:42:24;;;;;;;18.53;17.53;;;22.30;29.60;;;;;;4895985;29;20466;-73
2023/04/06 11:44:52;;;;;;;18.50;17.30;;;21.40;29.80;;;;;;4895866;29;20519;-74
2023/04/06 11:47:21;;;;;;;18.47;17.33;;;21.30;30.00;;;;;;4895998;29;20908;-73
2023/04/06 11:49:48;;;;;;;17.27;16.20;;;21.60;30.00;;;;;;4895600;29;21137;-74
2023/04/06 11:52:18;;;;;;;18.37;17.20;;;21.70;30.40;;;;;;4895936;29;20459;-73
2023/04/06 11:54:46;;;;;;;17.60;16.60;;;21.80;30.00;;;;;;4895593;29;20813;-73
2023/04/06 11:57:12;;;;;;;18.23;17.00;;;21.10;30.40;;;;;;4895938;29;20815;-73
2023/04/06 11:59:39;;;;;;;18.20;17.20;;;20.70;30.60;;;;;;4895907;29;20843;-73
2023/04/06 12:02:06;;;;;;;17.40;16.40;;;21.00;30.70;;;;;;4895665;29;20451;-73
2023/04/06 12:04:33;;;;;;;17.97;16.80;;;21.30;30.50;;;;;;4895224;29;20658;-74
2023/04/06 12:07:00;;;;;;;17.30;16.20;;;21.90;30.00;;;;;;4895210;29;20459;-73
2023/04/06 12:09:28;;;;;;;17.33;16.40;;;23.00;29.70;;;;;;4895705;29;20462;-74
2023/04/06 12:11:55;;;;;;;15.93;15.03;;;23.70;28.60;;;;;;4895503;29;20459;-73
2023/04/06 12:14:22;;;;;;;16.33;15.43;;;23.90;27.90;;;;;;4895579;29;20460;-73
2023/04/06 12:16:49;;;;;;;15.93;15.10;;;25.10;28.10;;;;;;4895156;29;20463;-74
2023/04/06 12:19:16;;;;;;;18.10;17.00;;;25.10;27.90;;;;;;4895358;29;20494;-74
2023/04/06 12:21:42;;;;;;;18.37;17.30;;;23.40;27.70;;;;;;4895869;29;20478;-73
2023/04/06 12:24:09;;;;;;;16.83;15.87;;;22.30;28.70;;;;;;4895926;29;20463;-73
2023/04/06 12:26:37;;;;;;;16.77;15.87;;;21.80;29.40;;;;;;4895799;29;20825;-73
2023/04/06 12:29:06;;;;;;;16.40;15.50;;;21.90;28.00;;;;;;4895466;29;20519;-73
2023/04/06 12:31:33;;;;;;;15.43;14.63;;;21.40;28.50;;;;;;4895272;29;20467;-73
2023/04/06 12:34:01;;;;;;;15.03;14.03;;;20.30;28.10;;;;;;4895376;29;20462;-73
2023/04/06 12:36:27;;;;;;;16.43;15.53;;;19.80;28.70;;;;;;4895542;29;20475;-72
2023/04/06 12:38:54;;;;;;;15.63;14.73;;;19.50;29.70;;;;;;4895330;29;20463;-72
2023/04/06 12:41:21;;;;;;;16.30;15.40;;;19.60;30.00;;;;;;4895320;29;20535;-73
2023/04/06 12:43:50;;;;;;;17.20;16.30;;;20.40;29.70;;;;;;4895057;29;20459;-73
2023/04/06 12:46:17;;;;;;;15.97;15.07;;;21.30;28.80;;;;;;4895088;29;20471;-73
2023/04/06 12:48:44;;;;;;;15.77;14.83;;;21.30;28.40;;;;;;4895002;29;20475;-72
2023/04/06 12:51:11;;;;;;;18.40;17.30;;;21.00;28.70;;;;;;4894306;29;20475;-72
2023/04/06 12:53:37;;;;;;;18.67;17.60;;;20.80;28.90;;;;;;4895257;29;20946;-73
2023/04/06 12:56:12;;;;;;;17.33;16.30;;;21.30;29.10;;;;;;4894761;29;20465;-72
2023/04/06 12:58:39;;;;;;;18.53;17.53;;;21.70;28.90;;;;;;4895314;29;20498;-72
2023/04/06 13:01:08;;;;;;;16.07;15.20;;;22.40;28.80;;;;;;4895018;29;20558;-73
2023/04/06 13:03:35;;;;;;;17.30;16.30;;;22.50;27.50;;;;;;4895049;29;20466;-73
2023/04/06 13:06:02;;;;;;;17.10;16.10;;;21.30;27.20;;;;;;4894722;29;20744;-72
2023/04/06 13:08:29;;;;;;;18.30;17.30;;;20.60;28.40;;;;;;4895071;29;20463;-73
2023/04/06 13:10:56;;;;;;;16.70;15.60;;;20.70;28.50;;;;;;4895131;29;20960;-72
2023/04/06 13:13:24;;;;;;;16.90;16.00;;;21.50;28.70;;;;;;4894697;29;20455;-73
2023/04/06 13:15:52;;;;;;;17.87;16.87;;;22.60;27.90;;;;;;4894686;29;20451;-73
2023/04/06 13:18:20;;;;;;;16.93;15.93;;;22.90;27.40;;;;;;4894321;29;20494;-73
2023/04/06 13:20:48;;;;;;;17.33;16.43;;;23.20;27.10;;;;;;4894643;29;20487;-72
2023/04/06 13:23:15;;;;;;;18.30;17.40;;;23.00;27.20;;;;;;4894668;29;20458;-73
2023/04/06 13:25:41;;;;;;;17.97;16.97;;;23.10;27.00;;;;;;4895060;29;20655;-73
2023/04/06 13:28:08;;;;;;;17.00;16.17;;;22.90;27.50;;;;;;4894958;29;20950;-72
2023/04/06 13:30:35;;;;;;;17.90;16.80;;;22.30;27.90;;;;;;4894603;29;20534;-73
2023/04/06 13:33:02;;;;;;;17.50;16.50;;;21.70;28.10;;;;;;4893675;29;20604;-72
2023/04/06 13:35:30;;;;;;;17.27;16.37;;;22.00;28.60;;;;;;4893773;29;20459;-72
2023/04/06 13:37:57;;;;;;;18.23;17.30;;;22.00;28.50;;;;;;4893954;29;20455;-72
2023/04/06 13:40:24;;;;;;;18.10;16.97;;;22.20;28.90;;;;;;4893928;29;20495;-73
2023/04/06 13:42:51;;;;;;;17.83;16.90;;;22.20;28.40;;;;;;4893677;29;20518;-73
2023/04/06 13:45:18;;;;;;;18.17;17.20;;;22.90;27.70;;;;;;4893687;29;20463;-73
2023/04/06 13:47:45;;;;;;;17.90;16.93;;;22.20;28.10;;;;;;4893469;29;20463;-72
2023/04/06 13:50:12;;;;;;;18.70;17.60;;;20.90;28.60;;;;;;4893602;29;21068;-73
2023/04/06 13:52:40;;;;;;;17.00;15.90;;;19.50;29.10;;;;;;4893769;29;20462;-74
2023/04/06 13:55:07;;;;;;;16.40;15.40;;;19.60;29.50;;;;;;4893530;29;20946;-73
2023/04/06 13:57:35;;;;;;;17.83;16.83;;;20.10;29.60;;;;;;4893617;29;20899;-72
2023/04/06 14:00:02;;;;;;;17.20;16.10;;;20.10;29.40;;;;;;4893378;29;21017;-72
2023/04/06 14:02:29;;;;;;;19.13;18.03;;;19.80;29.10;;;;;;4893011;29;20543;-72
2023/04/06 14:04:56;;;;;;;16.43;15.53;;;18.60;30.00;;;;;;4893634;29;20954;-72
2023/04/06 14:07:22;;;;;;;16.10;15.10;;;17.80;30.50;;;;;;4893532;29;20491;-72
2023/04/06 14:09:50;;;;;;;16.47;15.20;;;17.40;31.10;;;;;;4893303;29;20471;-72
2023/04/06 14:12:17;;;;;;;16.53;15.53;;;17.40;32.20;;;;;;4893053;29;20460;-72
2023/04/06 14:14:44;;;;;;;17.20;16.10;;;17.30;32.20;;;;;;4893179;29;20849;-72
2023/04/06 14:17:11;;;;;;;16.43;15.60;;;17.70;31.60;;;;;;4893297;29;20467;-73
2023/04/06 14:19:37;;;;;;;16.23;15.33;;;17.90;31.10;;;;;;4893240;29;20455;-73
2023/04/06 14:22:04;;;;;;;18.83;17.73;;;17.50;31.00;;;;;;4893247;29;20463;-73
2023/04/06 14:24:31;;;;;;;16.30;15.30;;;17.50;31.70;;;;;;4892856;29;20947;-73
2023/04/06 14:27:00;;;;;;;16.67;15.70;;;17.70;31.50;;;;;;4893125;29;20483;-73
2023/04/06 14:29:27;;;;;;;16.73;15.73;;;18.20;31.60;;;;;;4893299;29;20518;-73
2023/04/06 14:31:59;;;;;;;17.90;16.70;;;18.20;30.60;;;;;;4893356;29;20463;-72
2023/04/06 14:34:26;;;;;;;17.37;16.40;;;17.60;31.30;;;;;;4893457;29;20479;-73
2023/04/06 14:36:52;;;;;;;15.67;14.67;;;17.20;31.80;;;;;;4893075;29;20463;-72
2023/04/06 14:39:19;;;;;;;16.70;15.70;;;17.20;31.60;;;;;;4893236;29;20470;-73
2023/04/06 14:41:47;;;;;;;16.63;15.80;;;17.40;31.70;;;;;;4893295;29;20795;-73
2023/04/06 14:44:15;;;;;;;17.57;16.47;;;17.40;31.70;;;;;;4893146;29;20475;-72
2023/04/06 14:46:42;;;;;;;16.17;15.17;;;17.90;31.60;;;;;;4893340;29;20463;-72
2023/04/06 14:49:08;;;;;;;17.30;16.13;;;18.20;31.30;;;;;;4893017;29;20869;-73
2023/04/06 14:51:35;;;;;;;18.00;17.07;;;18.30;30.90;;;;;;4892612;29;20483;-73
2023/04/06 14:54:03;;;;;;;16.67;15.73;;;18.30;31.10;;;;;;4893055;29;20462;-72
2023/04/06 14:56:31;;;;;;;17.23;16.27;;;18.40;30.90;;;;;;4893213;29;20582;-73
2023/04/06 14:58:59;;;;;;;16.57;15.30;;;18.40;31.30;;;;;;4892899;29;20462;-72
2023/04/06 15:01:28;;;;;;;16.57;15.37;;;18.70;31.60;;;;;;4892703;29;20494;-72
2023/04/06 15:03:54;;;;;;;16.70;15.80;;;18.60;31.20;;;;;;4893004;29;20467;-73
2023/04/06 15:06:21;;;;;;;15.63;14.83;;;18.30;31.60;;;;;;4892922;29;20558;-72
2023/04/06 15:08:49;;;;;;;15.20;14.40;;;18.10;31.40;;;;;;4892686;29;20466;-72
2023/04/06 15:11:16;;;;;;;16.63;15.33;;;18.10;31.70;;;;;;4892675;29;20455;-72
2023/04/06 15:13:43;;;;;;;16.60;15.80;;;18.00;31.80;;;;;;4892754;29;20455;-72
2023/04/06 15:16:10;;;;;;;16.50;15.50;;;17.80;31.60;;;;;;4896509;29;20890;-72
2023/04/06 15:18:38;;;;;;;17.30;16.33;;;17.50;31.80;;;;;;4896232;29;20465;-72
2023/04/06 15:21:04;;;;;;;16.30;15.40;;;17.20;32.20;;;;;;4896247;29;20491;-72
2023/04/06 15:23:32;;;;;;;17.30;16.20;;;16.50;32.50;;;;;;4896238;29;20498;-74
2023/04/06 15:25:59;;;;;;;16.17;14.93;;;16.40;33.00;;;;;;4896094;29;20495;-71
2023/04/06 15:28:26;;;;;;;16.23;15.13;;;16.50;33.20;;;;;;4896656;29;20481;-73
2023/04/06 15:30:54;;;;;;;16.53;15.53;;;16.80;33.30;;;;;;4896211;29;20447;-73
2023/04/06 15:33:21;;;;;;;16.83;15.83;;;16.90;33.10;;;;;;4896090;29;20930;-74
2023/04/06 15:35:49;;;;;;;17.00;16.00;;;16.60;33.30;;;;;;4896210;29;20459;-74
2023/04/06 15:38:16;;;;;;;17.03;15.97;;;16.70;33.30;;;;;;4896107;29;20461;-73
2023/04/06 15:40:44;;;;;;;15.23;14.43;;;16.40;33.40;;;;;;4896033;29;20622;-74
2023/04/06 15:43:12;;;;;;;15.10;14.17;;;16.20;33.40;;;;;;4896343;29;20879;-74
2023/04/06 15:45:38;;;;;;;16.33;15.40;;;16.10;33.60;;;;;;4896225;29;20474;-74
2023/04/06 15:48:06;;;;;;;18.00;16.90;;;16.00;34.30;;;;;;4895686;29;20475;-73
2023/04/06 15:50:32;;;;;;;16.83;15.93;;;15.70;34.60;;;;;;4895634;29;20486;-74
2023/04/06 15:53:00;;;;;;;16.87;15.50;;;15.60;35.50;;;;;;4895946;29;20455;-74
2023/04/06 15:55:27;;;;;;;16.40;15.30;;;15.50;36.40;;;;;;4895975;29;20958;-74
2023/04/06 15:57:54;;;;;;;17.33;15.97;;;15.50;36.90;;;;;;4896030;29;20896;-73
2023/04/06 16:00:21;;;;;;;17.87;16.70;;;15.40;35.70;;;;;;4895975;29;20838;-73
2023/04/06 16:02:48;;;;;;;15.30;14.30;;;15.20;35.40;;;;;;4895618;29;20729;-73
2023/04/06 16:05:15;;;;;;;14.97;14.07;;;15.30;35.50;;;;;;4895659;29;20455;-73
2023/04/06 16:07:41;;;;;;;15.70;14.70;;;15.30;36.00;;;;;;4896104;29;20505;-72
2023/04/06 16:10:10;;;;;;;14.83;13.83;;;15.30;35.40;;;;;;4895952;29;20459;-73
2023/04/06 16:12:38;;;;;;;14.43;13.53;;;15.40;35.80;;;;;;4895628;29;20817;-74
2023/04/06 16:15:06;;;;;;;14.37;13.57;;;15.60;35.10;;;;;;4895458;29;20878;-73
2023/04/06 16:17:33;;;;;;;15.87;14.87;;;15.60;34.90;;;;;;4895264;29;20460;-73
2023/04/06 16:20:00;;;;;;;16.83;15.83;;;15.80;35.00;;;;;;4895343;29;20459;-73
2023/04/06 16:22:28;;;;;;;16.27;14.97;;;15.70;35.20;;;;;;4895580;29;20555;-73
2023/04/06 16:24:54;;;;;;;15.63;14.63;;;15.60;35.00;;;;;;4895471;29;20514;-73
2023/04/06 16:27:22;;;;;;;16.30;15.03;;;15.60;35.30;;;;;;4895282;29;20788;-73
2023/04/06 16:29:49;;;;;;;15.40;14.30;;;15.60;35.10;;;;;;4895221;29;20469;-73
2023/04/06 16:32:16;;;;;;;15.10;14.10;;;15.70;35.20;;;;;;4895020;29;20865;-73
2023/04/06 16:34:42;;;;;;;17.03;15.70;;;15.70;35.50;;;;;;4895172;29;21013;-73
2023/04/06 16:37:09;;;;;;;16.47;15.37;;;15.50;35.20;;;;;;4895324;29;20455;-73
2023/04/06 16:39:36;;;;;;;15.47;14.50;;;15.30;35.20;;;;;;4895918;29;20978;-73
2023/04/06 16:42:03;;;;;;;15.27;14.20;;;15.30;35.70;;;;;;4895801;29;20896;-73
2023/04/06 16:44:31;;;;;;;17.67;16.63;;;15.10;35.60;;;;;;4895756;29;20466;-73
2023/04/06 16:46:59;;;;;;;17.53;16.33;;;15.00;36.10;;;;;;4896135;29;20876;-74
2023/04/06 16:49:25;;;;;;;17.30;16.10;;;15.10;36.50;;;;;;4895872;29;20501;-74
2023/04/06 16:51:52;;;;;;;17.93;16.63;;;15.00;37.60;;;;;;4895815;29;20466;-74
2023/04/06 16:54:19;;;;;;;16.10;15.00;;;14.80;37.30;;;;;;4895708;29;20981;-73
2023/04/06 16:56:45;;;;;;;15.33;14.40;;;14.80;37.70;;;;;;4895575;29;20463;-73
2023/04/06 16:59:12;;;;;;;17.53;16.17;;;14.80;37.80;;;;;;4895728;29;20463;-72
2023/04/06 17:01:40;;;;;;;18.07;16.37;;;14.70;38.10;;;;;;4895514;29;21156;-72
2023/04/06 17:04:07;;;;;;;17.60;16.40;;;14.70;38.40;;;;;;4895587;29;20474;-72
2023/04/06 17:06:33;;;;;;;18.27;16.47;;;14.60;38.60;;;;;;4895319;29;20587;-73
2023/04/06 17:09:00;;;;;;;15.60;14.60;;;14.40;38.70;;;;;;4895288;29;20466;-73
2023/04/06 17:11:27;;;;;;;16.83;15.73;;;14.20;39.00;;;;;;4895514;29;20810;-73
2023/04/06 17:13:53;;;;;;;15.40;14.40;;;14.20;39.00;;;;;;4895510;29;20456;-73
2023/04/06 17:16:20;;;;;;;17.00;15.93;;;14.00;39.20;;;;;;4895137;29;20459;-73
2023/04/06 17:18:48;;;;;;;17.40;16.07;;;13.90;39.70;;;;;;4895168;29;20591;-73
2023/04/06 17:21:15;;;;;;;19.17;17.37;;;13.90;40.30;;;;;;4894980;29;21080;-73